createdAt,value
2022-12-23T00:01:54.058Z,10.20
2022-12-23T00:04:24.071Z,10.20
2022-12-23T00:06:55.596Z,10.20
2022-12-23T00:09:25.790Z,10.20
2022-12-23T00:12:09.145Z,10.20
2022-12-23T00:14:58.353Z,10.20
2022-12-23T00:17:27.540Z,10.30
2022-12-23T00:19:59.294Z,10.20
2022-12-23T00:22:43.143Z,10.20
2022-12-23T00:25:11.236Z,10.20
2022-12-23T00:27:42.098Z,10.20
2022-12-23T00:30:14.259Z,10.20
2022-12-23T00:32:43.241Z,10.20
2022-12-23T00:35:11.041Z,10.20
2022-12-23T00:37:40.042Z,10.20
2022-12-23T00:40:29.282Z,10.30
2022-12-23T00:42:58.878Z,10.30
2022-12-23T00:45:29.544Z,10.20
2022-12-23T00:48:17.154Z,10.30
2022-12-23T00:50:48.882Z,10.20
2022-12-23T00:53:19.453Z,10.20
2022-12-23T00:55:50.701Z,10.30
2022-12-23T00:58:21.654Z,10.30
2022-12-23T01:01:16.514Z,10.30
2022-12-23T01:04:04.228Z,10.20
2022-12-23T01:06:32.471Z,10.30
2022-12-23T01:09:01.621Z,10.30
2022-12-23T01:11:30.556Z,10.40
2022-12-23T01:13:59.966Z,10.40
2022-12-23T01:16:30.693Z,10.40
2022-12-23T01:19:00.174Z,10.40
2022-12-23T01:21:29.032Z,10.40
2022-12-23T01:23:57.886Z,10.40
2022-12-23T01:26:26.051Z,10.40
2022-12-23T01:28:55.477Z,10.40
2022-12-23T01:31:26.076Z,10.40
2022-12-23T01:33:56.941Z,10.40
2022-12-23T01:36:25.190Z,10.40
2022-12-23T01:38:58.317Z,10.40
2022-12-23T01:41:48.186Z,10.40
2022-12-23T01:45:05.007Z,10.40
2022-12-23T01:47:41.254Z,10.50
2022-12-23T01:50:29.057Z,10.40
2022-12-23T01:53:07.327Z,10.50
2022-12-23T01:55:44.517Z,10.70
2022-12-23T01:58:18.580Z,10.70
2022-12-23T02:01:05.551Z,10.60
2022-12-23T02:03:45.302Z,10.60
2022-12-23T02:06:38.290Z,10.70
2022-12-23T02:09:22.730Z,10.70
2022-12-23T02:12:24.920Z,10.70
2022-12-23T02:16:04.953Z,10.70
2022-12-23T02:18:54.933Z,10.70
2022-12-23T02:21:36.310Z,10.70
2022-12-23T02:24:52.020Z,10.70
2022-12-23T02:27:31.765Z,10.80
2022-12-23T02:30:37.306Z,10.80
2022-12-23T02:33:36.379Z,10.80
2022-12-23T02:36:12.779Z,10.80
2022-12-23T02:38:50.293Z,10.70
2022-12-23T02:41:23.922Z,10.60
2022-12-23T02:44:03.100Z,10.70
2022-12-23T02:46:35.536Z,10.80
2022-12-23T02:49:09.327Z,10.90
2022-12-23T02:51:43.498Z,10.90
2022-12-23T02:54:16.867Z,10.90
2022-12-23T02:56:51.367Z,10.80
2022-12-23T02:59:24.208Z,10.80
2022-12-23T03:01:59.909Z,10.80
2022-12-23T03:04:30.708Z,10.80
2022-12-23T03:07:07.137Z,11.00
2022-12-23T03:09:48.041Z,11.20
2022-12-23T03:12:29.427Z,11.50
2022-12-23T03:15:14.220Z,11.60
2022-12-23T03:17:58.449Z,11.70
2022-12-23T03:20:35.952Z,11.80
2022-12-23T03:23:15.459Z,11.60
2022-12-23T03:25:52.356Z,11.50
2022-12-23T03:28:29.099Z,11.50
2022-12-23T03:31:02.068Z,11.50
2022-12-23T03:33:38.919Z,11.40
2022-12-23T03:36:14.005Z,11.40
2022-12-23T03:38:44.557Z,11.40
2022-12-23T03:41:20.679Z,11.40
2022-12-23T03:43:53.459Z,11.50
2022-12-23T03:46:33.816Z,11.50
2022-12-23T03:49:10.718Z,11.50
2022-12-23T03:51:46.896Z,11.40
2022-12-23T03:54:20.283Z,11.30
2022-12-23T03:56:55.865Z,11.30
2022-12-23T03:59:29.169Z,11.40
2022-12-23T04:02:07.877Z,11.30
2022-12-23T04:05:12.204Z,11.30
2022-12-23T04:07:44.868Z,11.30
2022-12-23T04:10:15.230Z,11.30
2022-12-23T04:12:45.138Z,11.40
2022-12-23T04:15:16.742Z,11.40
2022-12-23T04:17:44.591Z,11.40
2022-12-23T04:20:15.341Z,11.40
2022-12-23T04:22:45.955Z,11.40
2022-12-23T04:25:16.173Z,11.40
2022-12-23T04:27:46.129Z,11.40
2022-12-23T04:30:18.563Z,11.30
2022-12-23T04:32:46.427Z,11.40
2022-12-23T04:35:15.710Z,11.40
2022-12-23T04:37:43.664Z,11.50
2022-12-23T04:40:11.895Z,11.50
2022-12-23T04:42:42.131Z,11.60
2022-12-23T04:45:10.982Z,11.70
2022-12-23T04:47:38.861Z,11.80
2022-12-23T04:50:08.003Z,11.80
2022-12-23T04:52:37.228Z,11.80
2022-12-23T04:55:05.876Z,11.70
2022-12-23T04:57:36.006Z,11.70
2022-12-23T05:00:06.427Z,11.70
2022-12-23T05:02:37.932Z,11.60
2022-12-23T05:05:07.716Z,11.60
2022-12-23T05:07:38.332Z,11.60
2022-12-23T05:10:06.771Z,11.50
2022-12-23T05:12:34.581Z,11.50
2022-12-23T05:15:03.645Z,11.50
2022-12-23T05:17:32.651Z,11.50
2022-12-23T05:20:03.998Z,11.50
2022-12-23T05:22:32.047Z,11.50
2022-12-23T05:25:01.236Z,11.60
2022-12-23T05:27:30.536Z,11.70
2022-12-23T05:29:58.457Z,11.70
2022-12-23T05:32:26.841Z,11.70
2022-12-23T05:34:57.041Z,11.70
2022-12-23T05:37:26.958Z,11.70
2022-12-23T05:39:55.990Z,11.70
2022-12-23T05:42:40.637Z,11.80
2022-12-23T05:45:10.602Z,11.80
2022-12-23T05:47:42.108Z,11.70
2022-12-23T05:50:13.076Z,11.70
2022-12-23T05:52:43.126Z,11.80
2022-12-23T05:55:14.611Z,11.70
2022-12-23T05:57:48.664Z,11.70
2022-12-23T06:00:17.095Z,11.70
2022-12-23T06:02:53.327Z,11.70
2022-12-23T06:05:22.517Z,11.70
2022-12-23T06:07:50.424Z,11.70
2022-12-23T06:10:19.530Z,11.70
2022-12-23T06:12:50.967Z,11.80
2022-12-23T06:15:18.868Z,11.70
2022-12-23T06:17:46.701Z,11.70
2022-12-23T06:20:20.494Z,11.60
2022-12-23T06:22:53.303Z,11.70
2022-12-23T06:25:21.251Z,11.70
2022-12-23T06:27:50.614Z,11.60
2022-12-23T06:30:19.955Z,11.60
2022-12-23T06:32:49.163Z,11.60
2022-12-23T06:35:18.150Z,11.60
2022-12-23T06:37:45.968Z,11.50
2022-12-23T06:40:17.191Z,11.60
2022-12-23T06:42:45.037Z,11.70
2022-12-23T06:45:15.414Z,11.70
2022-12-23T06:47:45.038Z,11.70
2022-12-23T06:50:14.121Z,11.60
2022-12-23T06:52:43.573Z,11.60
2022-12-23T06:55:12.666Z,11.60
2022-12-23T06:57:41.813Z,11.70
2022-12-23T07:00:13.253Z,11.70
2022-12-23T07:02:44.034Z,11.70
2022-12-23T07:05:11.894Z,11.80
2022-12-23T07:07:41.130Z,11.80
2022-12-23T07:10:11.000Z,11.80
2022-12-23T07:12:41.782Z,11.90
2022-12-23T07:15:12.640Z,12.00
2022-12-23T07:17:43.387Z,12.00
2022-12-23T07:20:14.403Z,12.00
2022-12-23T07:22:43.867Z,11.90
2022-12-23T07:25:13.527Z,11.90
2022-12-23T07:27:43.845Z,11.80
2022-12-23T07:30:14.670Z,11.80
2022-12-23T07:32:50.954Z,11.70
2022-12-23T07:35:20.613Z,11.70
2022-12-23T07:37:52.519Z,11.60
2022-12-23T07:40:21.439Z,11.50
2022-12-23T07:42:51.057Z,11.60
2022-12-23T07:45:20.403Z,11.60
2022-12-23T07:47:54.750Z,11.80
2022-12-23T07:50:23.921Z,11.80
2022-12-23T07:52:53.688Z,11.80
2022-12-23T07:55:23.151Z,11.80
2022-12-23T07:57:53.145Z,11.80
2022-12-23T08:00:24.402Z,11.80
2022-12-23T08:02:59.276Z,11.80
2022-12-23T08:05:30.515Z,11.80
2022-12-23T08:08:00.644Z,11.80
2022-12-23T08:10:29.923Z,11.80
2022-12-23T08:13:01.682Z,11.80
2022-12-23T08:15:31.088Z,12.00
2022-12-23T08:18:01.474Z,12.00
2022-12-23T08:20:30.768Z,12.00
2022-12-23T08:23:01.000Z,12.10
2022-12-23T08:25:32.399Z,12.10
2022-12-23T08:28:04.029Z,12.20
2022-12-23T08:30:34.338Z,12.20
2022-12-23T08:33:05.381Z,12.30
2022-12-23T08:35:35.551Z,12.30
2022-12-23T08:38:05.410Z,12.20
2022-12-23T08:40:33.296Z,12.20
2022-12-23T08:43:03.571Z,12.20
2022-12-23T08:45:31.411Z,12.30
2022-12-23T08:48:00.807Z,12.30
2022-12-23T08:50:44.079Z,12.30
2022-12-23T08:53:14.386Z,12.20
2022-12-23T08:55:47.762Z,12.20
2022-12-23T08:58:22.464Z,12.10
2022-12-23T09:00:54.048Z,12.20
2022-12-23T09:03:25.029Z,12.30
2022-12-23T09:05:57.565Z,12.20
2022-12-23T09:08:26.991Z,12.20
2022-12-23T09:10:56.075Z,12.30
2022-12-23T09:13:32.820Z,12.30
2022-12-23T09:16:04.939Z,12.30
2022-12-23T09:18:34.314Z,12.30
2022-12-23T09:21:07.364Z,12.40
2022-12-23T09:23:35.713Z,12.30
2022-12-23T09:26:05.304Z,12.20
2022-12-23T09:28:35.071Z,12.20
2022-12-23T09:31:07.846Z,12.20
2022-12-23T09:33:37.002Z,12.20
2022-12-23T09:36:11.332Z,12.20
2022-12-23T09:38:40.380Z,12.20
2022-12-23T09:41:22.873Z,12.20
2022-12-23T09:44:01.829Z,12.10
2022-12-23T09:46:34.784Z,12.00
2022-12-23T09:49:08.290Z,11.80
2022-12-23T09:51:40.198Z,11.70
2022-12-23T09:54:17.289Z,11.70
2022-12-23T09:56:52.659Z,11.50
2022-12-23T09:59:30.861Z,11.50
2022-12-23T10:02:09.832Z,11.50
2022-12-23T10:04:48.088Z,11.50
2022-12-23T10:07:30.976Z,11.50
2022-12-23T10:10:09.106Z,11.50
2022-12-23T10:12:41.966Z,11.40
2022-12-23T10:15:26.992Z,11.50
2022-12-23T10:17:58.048Z,11.50
2022-12-23T10:20:48.888Z,11.50
2022-12-23T10:23:26.213Z,11.60
2022-12-23T10:25:55.486Z,11.60
2022-12-23T10:28:29.558Z,11.60
2022-12-23T10:31:38.638Z,11.70
2022-12-23T10:34:03.708Z,11.70
2022-12-23T10:36:45.927Z,11.70
2022-12-23T10:39:25.923Z,11.70
2022-12-23T10:42:07.135Z,11.70
2022-12-23T10:45:11.108Z,11.80
2022-12-23T10:48:06.105Z,11.90
2022-12-23T10:50:48.569Z,12.00
2022-12-23T10:53:26.510Z,12.00
2022-12-23T10:56:03.495Z,12.10
2022-12-23T10:58:34.889Z,12.10
2022-12-23T11:01:14.149Z,12.10
2022-12-23T11:03:55.369Z,12.10
2022-12-23T11:06:30.159Z,12.10
2022-12-23T11:09:03.963Z,12.10
2022-12-23T11:11:56.677Z,12.10
2022-12-23T11:14:42.105Z,12.10
2022-12-23T11:17:21.637Z,12.10
2022-12-23T11:20:12.737Z,12.10
2022-12-23T11:22:50.185Z,12.10
2022-12-23T11:25:29.620Z,12.00
2022-12-23T11:28:07.317Z,12.00
2022-12-23T11:30:41.478Z,12.00
2022-12-23T11:33:22.420Z,12.00
2022-12-23T11:36:03.679Z,12.00
2022-12-23T11:38:32.550Z,12.00
2022-12-23T11:41:01.617Z,11.90
2022-12-23T11:43:34.849Z,11.90
2022-12-23T11:46:19.653Z,12.00
2022-12-23T11:48:54.505Z,12.00
2022-12-23T11:51:27.851Z,12.00
2022-12-23T11:54:01.709Z,12.00
2022-12-23T11:56:37.976Z,12.00
2022-12-23T11:59:10.617Z,12.00
2022-12-23T12:01:41.650Z,12.00
2022-12-23T12:04:15.792Z,11.90
2022-12-23T12:06:49.845Z,12.00
2022-12-23T12:09:23.566Z,12.00
2022-12-23T12:11:55.263Z,12.00
2022-12-23T12:14:36.939Z,12.00
2022-12-23T12:17:19.751Z,11.90
2022-12-23T12:19:59.390Z,11.90
2022-12-23T12:22:38.058Z,11.90
2022-12-23T12:25:18.046Z,11.90
2022-12-23T12:27:54.488Z,12.00
2022-12-23T12:30:34.204Z,12.00
2022-12-23T12:33:08.555Z,11.90
2022-12-23T12:35:43.341Z,12.00
2022-12-23T12:38:20.962Z,12.00
2022-12-23T12:40:54.656Z,12.00
2022-12-23T12:43:28.059Z,12.00
2022-12-23T12:46:12.922Z,12.00
2022-12-23T12:48:50.507Z,12.00
2022-12-23T12:51:25.822Z,12.10
2022-12-23T12:54:06.536Z,12.10
2022-12-23T12:56:41.586Z,12.10
2022-12-23T12:59:19.235Z,12.10
2022-12-23T13:01:59.690Z,12.20
2022-12-23T13:05:06.449Z,12.20
2022-12-23T13:07:43.969Z,12.20
2022-12-23T13:10:23.177Z,12.30
2022-12-23T13:12:59.975Z,12.30
2022-12-23T13:15:35.332Z,12.30
2022-12-23T13:18:27.645Z,12.30
2022-12-23T13:21:06.603Z,12.40
2022-12-23T13:23:44.168Z,12.40
2022-12-23T13:26:23.088Z,12.40
2022-12-23T13:29:02.452Z,12.40
2022-12-23T13:31:41.063Z,12.40
2022-12-23T13:34:30.304Z,12.40
2022-12-23T13:37:07.244Z,12.40
2022-12-23T13:39:47.818Z,12.50
2022-12-23T13:42:27.699Z,12.50
2022-12-23T13:44:57.442Z,12.50
2022-12-23T13:47:34.346Z,12.50
2022-12-23T13:50:25.646Z,12.60
2022-12-23T13:53:17.155Z,12.60
2022-12-23T13:56:00.471Z,12.60
2022-12-23T13:58:32.022Z,12.60
2022-12-23T14:01:23.202Z,12.60
2022-12-23T14:03:52.619Z,12.70
2022-12-23T14:06:44.834Z,12.70
2022-12-23T14:09:17.067Z,12.80
2022-12-23T14:11:46.131Z,12.80
2022-12-23T14:14:22.177Z,12.80
2022-12-23T14:17:03.307Z,12.80
2022-12-23T14:19:44.757Z,12.90
2022-12-23T14:22:41.309Z,12.90
2022-12-23T14:25:37.330Z,12.90
2022-12-23T14:28:20.277Z,12.90
2022-12-23T14:30:49.401Z,13.00
2022-12-23T14:33:25.717Z,13.00
2022-12-23T14:35:58.180Z,13.00
2022-12-23T14:38:35.099Z,13.10
2022-12-23T14:41:25.628Z,13.10
2022-12-23T14:43:57.238Z,13.10
2022-12-23T14:46:56.439Z,13.10
2022-12-23T14:49:44.033Z,13.10
2022-12-23T14:52:50.339Z,13.10
2022-12-23T14:55:47.718Z,13.20
2022-12-23T14:59:00.338Z,13.20
2022-12-23T15:01:42.382Z,13.10
2022-12-23T15:04:19.358Z,13.10
2022-12-23T15:06:51.536Z,13.10
2022-12-23T15:09:30.096Z,13.20
2022-12-23T15:12:02.293Z,13.20
2022-12-23T15:14:35.495Z,13.20
2022-12-23T15:17:16.540Z,13.20
2022-12-23T15:19:47.904Z,13.20
2022-12-23T15:22:24.165Z,13.30
2022-12-23T15:24:57.380Z,13.30
2022-12-23T15:27:31.176Z,13.20
2022-12-23T15:30:00.746Z,13.30
2022-12-23T15:32:30.576Z,13.20
2022-12-23T15:35:07.053Z,13.20
2022-12-23T15:37:36.155Z,13.30
2022-12-23T15:40:12.637Z,13.30
2022-12-23T15:42:50.652Z,13.40
2022-12-23T15:45:36.148Z,13.40
2022-12-23T15:48:05.542Z,13.40
2022-12-23T15:50:44.239Z,13.40
2022-12-23T15:53:18.219Z,13.50
2022-12-23T15:55:48.124Z,13.50
2022-12-23T15:58:25.133Z,13.50
2022-12-23T16:00:55.695Z,13.50
2022-12-23T16:03:28.595Z,13.40
2022-12-23T16:06:07.323Z,13.40
2022-12-23T16:08:43.278Z,13.50
2022-12-23T16:11:17.218Z,13.40
2022-12-23T16:14:00.510Z,13.40
2022-12-23T16:16:35.010Z,13.40
2022-12-23T16:19:04.325Z,13.40
2022-12-23T16:21:35.657Z,13.40
2022-12-23T16:24:11.449Z,13.40
2022-12-23T16:26:45.664Z,13.40
2022-12-23T16:29:16.630Z,13.40
2022-12-23T16:31:52.064Z,13.30
2022-12-23T16:34:25.847Z,13.30
2022-12-23T16:36:57.162Z,13.40
2022-12-23T16:39:26.287Z,13.60
2022-12-23T16:41:55.503Z,13.70
2022-12-23T16:44:24.744Z,13.70
2022-12-23T16:46:53.109Z,13.80
2022-12-23T16:49:31.231Z,13.90
2022-12-23T16:52:03.182Z,14.00
2022-12-23T16:54:32.715Z,14.10
2022-12-23T16:57:01.895Z,14.30
2022-12-23T16:59:32.217Z,14.40
2022-12-23T17:02:03.654Z,14.30
2022-12-23T17:04:35.430Z,14.30
2022-12-23T17:07:12.543Z,14.30
2022-12-23T17:09:41.937Z,14.30
2022-12-23T17:12:12.254Z,14.30
2022-12-23T17:14:48.677Z,14.30
2022-12-23T17:17:24.210Z,14.30
2022-12-23T17:19:55.586Z,14.40
2022-12-23T17:22:23.483Z,14.30
2022-12-23T17:24:52.430Z,14.30
2022-12-23T17:27:27.360Z,14.50
2022-12-23T17:29:57.558Z,14.50
2022-12-23T17:32:25.601Z,14.50
2022-12-23T17:34:55.618Z,14.50
2022-12-23T17:37:26.655Z,14.50
2022-12-23T17:39:54.494Z,14.40
2022-12-23T17:42:26.539Z,14.40
2022-12-23T17:44:54.372Z,14.40
2022-12-23T17:47:25.012Z,14.50
2022-12-23T17:49:54.060Z,14.50
2022-12-23T17:52:24.754Z,14.40
2022-12-23T17:54:52.909Z,14.40
2022-12-23T17:57:22.952Z,14.30
2022-12-23T17:59:52.568Z,14.30
2022-12-23T18:02:29.371Z,14.30
2022-12-23T18:04:58.830Z,14.40
2022-12-23T18:07:30.087Z,14.40
2022-12-23T18:10:01.324Z,14.30
2022-12-23T18:12:37.815Z,14.20
2022-12-23T18:15:08.472Z,14.10
2022-12-23T18:17:42.545Z,14.00
2022-12-23T18:20:15.334Z,13.90
2022-12-23T18:22:45.109Z,13.90
2022-12-23T18:25:20.259Z,13.80
2022-12-23T18:27:52.378Z,13.80
2022-12-23T18:30:23.309Z,13.80
2022-12-23T18:32:59.206Z,13.70
2022-12-23T18:35:31.001Z,13.70
2022-12-23T18:38:00.893Z,13.60
2022-12-23T18:40:32.868Z,13.60
2022-12-23T18:43:02.175Z,13.70
2022-12-23T18:45:37.145Z,13.70
2022-12-23T18:48:08.367Z,13.60
2022-12-23T18:50:39.161Z,13.60
2022-12-23T18:53:10.446Z,13.50
2022-12-23T18:55:40.581Z,13.60
2022-12-23T18:58:11.420Z,13.50
2022-12-23T19:00:43.917Z,13.50
2022-12-23T19:03:23.976Z,13.40
2022-12-23T19:05:54.911Z,13.40
2022-12-23T19:08:27.543Z,13.30
2022-12-23T19:10:57.170Z,13.30
2022-12-23T19:13:26.540Z,13.30
2022-12-23T19:15:56.679Z,13.40
2022-12-23T19:18:28.545Z,13.40
2022-12-23T19:20:56.762Z,13.40
2022-12-23T19:23:26.504Z,13.40
2022-12-23T19:25:55.772Z,13.30
2022-12-23T19:28:25.126Z,13.30
2022-12-23T19:30:56.463Z,13.30
2022-12-23T19:33:28.873Z,13.30
2022-12-23T19:35:56.752Z,13.30
2022-12-23T19:38:27.030Z,13.20
2022-12-23T19:40:59.286Z,13.20
2022-12-23T19:43:30.427Z,13.20
2022-12-23T19:46:00.156Z,13.20
2022-12-23T19:48:30.258Z,13.30
2022-12-23T19:51:00.590Z,13.20
2022-12-23T19:53:30.453Z,13.10
2022-12-23T19:55:59.378Z,13.10
2022-12-23T19:58:29.858Z,13.10
2022-12-23T20:01:07.346Z,13.10
2022-12-23T20:03:37.059Z,13.00
2022-12-23T20:06:07.647Z,13.00
2022-12-23T20:08:36.914Z,13.00
2022-12-23T20:11:08.612Z,13.00
2022-12-23T20:13:37.401Z,13.10
2022-12-23T20:16:06.701Z,13.00
2022-12-23T20:18:36.433Z,13.00
2022-12-23T20:21:07.137Z,13.00
2022-12-23T20:23:38.721Z,12.90
2022-12-23T20:26:07.641Z,12.90
2022-12-23T20:28:39.320Z,12.90
2022-12-23T20:31:10.051Z,12.80
2022-12-23T20:33:42.547Z,12.80
2022-12-23T20:36:12.821Z,12.80
2022-12-23T20:38:44.458Z,12.90
2022-12-23T20:41:15.255Z,12.90
2022-12-23T20:43:56.967Z,12.90
2022-12-23T20:46:32.801Z,12.80
2022-12-23T20:49:02.172Z,12.80
2022-12-23T20:51:32.449Z,12.80
2022-12-23T20:54:00.849Z,12.90
2022-12-23T20:56:30.321Z,12.80
2022-12-23T20:59:00.360Z,12.80
2022-12-23T21:01:30.659Z,12.80
2022-12-23T21:04:03.117Z,12.80
2022-12-23T21:06:33.891Z,12.70
2022-12-23T21:09:05.339Z,12.70
2022-12-23T21:11:38.632Z,12.70
2022-12-23T21:14:07.710Z,12.70
2022-12-23T21:16:38.086Z,12.70
2022-12-23T21:19:10.018Z,12.80
2022-12-23T21:21:41.447Z,12.80
2022-12-23T21:24:11.214Z,12.80
2022-12-23T21:26:40.292Z,12.80
2022-12-23T21:29:11.668Z,12.80
2022-12-23T21:31:42.041Z,12.80
2022-12-23T21:34:14.268Z,12.70
2022-12-23T21:36:43.949Z,12.70
2022-12-23T21:39:15.577Z,12.70
2022-12-23T21:41:52.987Z,12.60
2022-12-23T21:44:24.550Z,12.60
2022-12-23T21:46:55.384Z,12.50
2022-12-23T21:49:29.377Z,12.40
2022-12-23T21:52:01.037Z,12.40
2022-12-23T21:54:30.030Z,12.40
2022-12-23T21:56:59.048Z,12.40
2022-12-23T21:59:34.744Z,12.40
2022-12-23T22:02:05.238Z,12.40
2022-12-23T22:04:35.710Z,12.50
2022-12-23T22:07:04.964Z,12.50
2022-12-23T22:09:34.201Z,12.50
2022-12-23T22:12:05.063Z,12.50
2022-12-23T22:14:34.259Z,12.50
2022-12-23T22:17:03.465Z,12.50
2022-12-23T22:19:34.716Z,12.50
2022-12-23T22:22:08.724Z,12.50
2022-12-23T22:24:37.686Z,12.50
2022-12-23T22:27:06.954Z,12.40
2022-12-23T22:29:38.829Z,12.40
2022-12-23T22:32:08.931Z,12.40
2022-12-23T22:34:40.021Z,12.40
2022-12-23T22:37:14.039Z,12.40
2022-12-23T22:39:43.480Z,12.40
2022-12-23T22:42:12.416Z,12.50
2022-12-23T22:44:42.633Z,12.60
2022-12-23T22:47:10.656Z,12.50
2022-12-23T22:49:40.147Z,12.40
2022-12-23T22:52:21.096Z,12.40
2022-12-23T22:54:51.481Z,12.40
2022-12-23T22:57:20.620Z,12.40
2022-12-23T22:59:49.796Z,12.40
2022-12-23T23:02:21.661Z,12.40
2022-12-23T23:04:50.696Z,12.40
2022-12-23T23:07:21.418Z,12.40
2022-12-23T23:09:51.989Z,12.40
2022-12-23T23:12:21.297Z,12.40
2022-12-23T23:14:54.762Z,12.30
2022-12-23T23:17:27.865Z,12.40
2022-12-23T23:19:57.287Z,12.40
2022-12-23T23:22:27.826Z,12.40
2022-12-23T23:24:56.852Z,12.40
2022-12-23T23:27:26.882Z,12.40
2022-12-23T23:29:56.940Z,12.40
2022-12-23T23:32:27.170Z,12.40
2022-12-23T23:34:56.803Z,12.40
2022-12-23T23:37:27.067Z,12.30
2022-12-23T23:39:58.282Z,12.30
2022-12-23T23:42:29.251Z,12.40
2022-12-23T23:44:57.129Z,12.40
2022-12-23T23:47:25.033Z,12.30
2022-12-23T23:49:54.270Z,12.30
2022-12-23T23:52:23.466Z,12.30
2022-12-23T23:54:55.136Z,12.20
2022-12-23T23:57:26.253Z,12.20
2022-12-23T23:59:55.600Z,12.20
